createdAt,value
2022-09-07T00:04:20.166Z,10.10
2022-09-07T00:14:23.899Z,9.90
2022-09-07T00:24:29.014Z,9.90
2022-09-07T00:34:33.058Z,9.80
2022-09-07T00:45:16.327Z,9.60
2022-09-07T00:55:21.430Z,9.50
2022-09-07T01:05:31.994Z,9.40
2022-09-07T01:15:47.868Z,9.40
2022-09-07T01:26:22.493Z,9.20
2022-09-07T01:36:35.347Z,9.20
2022-09-07T01:46:45.966Z,9.10
2022-09-07T01:56:54.806Z,9.30
2022-09-07T02:07:03.780Z,9.60
2022-09-07T02:17:13.708Z,9.70
2022-09-07T02:27:22.533Z,9.80
2022-09-07T02:37:29.751Z,9.80
2022-09-07T02:47:51.375Z,9.80
2022-09-07T02:58:14.945Z,9.70
2022-09-07T03:08:22.507Z,9.70
2022-09-07T03:18:29.074Z,9.50
2022-09-07T03:28:33.009Z,9.30
2022-09-07T03:38:38.267Z,9.20
2022-09-07T03:48:42.038Z,9.00
2022-09-07T03:58:48.685Z,8.60
2022-09-07T04:08:52.800Z,8.20
2022-09-07T04:18:59.386Z,7.90
2022-09-07T04:29:04.230Z,7.80
2022-09-07T04:39:09.432Z,7.60
2022-09-07T04:49:14.022Z,7.50
2022-09-07T04:59:19.317Z,7.50
2022-09-07T05:09:23.267Z,7.60
2022-09-07T05:19:29.269Z,7.80
2022-09-07T05:39:58.529Z,8.50
2022-09-07T05:50:02.183Z,9.10
2022-09-07T06:00:08.359Z,9.70
2022-09-07T06:20:40.982Z,12.30
2022-09-07T06:30:44.696Z,14.40
2022-09-07T06:40:50.298Z,16.10
2022-09-07T06:50:58.835Z,17.60
2022-09-07T07:01:08.002Z,19.20
2022-09-07T07:11:14.632Z,21.20
2022-09-07T07:21:20.648Z,23.10
2022-09-07T07:31:27.259Z,25.00
2022-09-07T08:02:22.434Z,30.40
2022-09-07T08:12:29.666Z,32.30
2022-09-07T08:22:35.014Z,33.50
2022-09-07T08:32:38.410Z,35.60
2022-09-07T08:43:01.736Z,37.10
2022-09-07T08:53:10.205Z,38.20
2022-09-07T09:03:30.628Z,40.00
2022-09-07T09:13:49.360Z,41.00
2022-09-07T09:24:01.971Z,41.70
2022-09-07T09:34:12.345Z,43.10
2022-09-07T09:44:19.653Z,44.80
2022-09-07T09:54:29.154Z,46.50
2022-09-07T10:04:35.844Z,48.00
2022-09-07T10:14:48.764Z,48.10
2022-09-07T10:24:53.616Z,50.40
2022-09-07T10:35:09.925Z,50.10
2022-09-07T10:45:21.473Z,51.60
2022-09-07T10:55:31.826Z,52.60
2022-09-07T11:05:52.296Z,53.50
2022-09-07T11:16:01.578Z,53.40
2022-09-07T11:26:15.903Z,54.00
2022-09-07T11:36:22.590Z,55.10
2022-09-07T11:46:34.066Z,55.80
2022-09-07T11:56:45.748Z,56.70
2022-09-07T12:07:31.807Z,57.00
2022-09-07T12:18:02.800Z,56.10
2022-09-07T12:28:21.708Z,56.40
2022-09-07T12:39:18.113Z,55.30
2022-09-07T12:50:07.354Z,54.90
2022-09-07T13:00:20.648Z,48.00
2022-09-07T13:10:36.122Z,39.60
2022-09-07T13:20:41.636Z,35.10
2022-09-07T13:31:03.372Z,33.00
2022-09-07T13:41:13.838Z,30.70
2022-09-07T13:51:26.270Z,29.00
2022-09-07T14:01:30.675Z,28.00
2022-09-07T14:11:44.684Z,27.50
2022-09-07T14:22:00.299Z,27.20
2022-09-07T14:32:06.201Z,26.60
2022-09-07T14:42:13.013Z,26.10
2022-09-07T14:52:23.524Z,25.70
2022-09-07T15:02:38.778Z,25.10
2022-09-07T15:12:45.167Z,24.50
2022-09-07T15:22:48.541Z,24.00
2022-09-07T15:32:53.316Z,23.80
2022-09-07T15:43:00.293Z,23.40
2022-09-07T15:53:06.105Z,23.20
2022-09-07T16:03:10.531Z,22.80
2022-09-07T16:13:16.933Z,22.40
2022-09-07T16:23:20.596Z,21.90
2022-09-07T16:33:33.082Z,21.40
2022-09-07T16:43:40.168Z,20.90
2022-09-07T16:53:45.017Z,20.10
2022-09-07T17:03:50.173Z,19.40
2022-09-07T17:13:57.142Z,18.50
2022-09-07T17:24:01.660Z,17.70
2022-09-07T17:34:08.898Z,17.00
2022-09-07T17:44:12.782Z,16.40
2022-09-07T17:54:19.178Z,16.00
2022-09-07T18:04:23.317Z,15.50
2022-09-07T18:14:30.231Z,15.20
2022-09-07T18:24:36.885Z,14.90
2022-09-07T18:34:43.988Z,14.70
2022-09-07T18:55:16.281Z,14.20
2022-09-07T19:15:45.445Z,13.80
2022-09-07T19:25:49.166Z,13.50
2022-09-07T19:35:54.264Z,13.30
2022-09-07T19:45:58.291Z,13.10
2022-09-07T19:56:08.388Z,12.90
2022-09-07T20:06:15.441Z,12.70
2022-09-07T20:16:21.565Z,12.40
2022-09-07T20:26:25.351Z,12.20
2022-09-07T20:36:30.301Z,12.10
2022-09-07T20:46:34.758Z,12.10
2022-09-07T20:56:39.836Z,12.20
2022-09-07T21:06:43.660Z,12.30
2022-09-07T21:16:48.707Z,12.40
2022-09-07T21:26:52.784Z,12.50
2022-09-07T21:36:57.947Z,12.50
2022-09-07T21:47:01.680Z,12.30
2022-09-07T21:57:08.241Z,12.20
2022-09-07T22:07:12.168Z,12.00
2022-09-07T22:17:17.271Z,11.80
2022-09-07T22:27:23.543Z,11.60
2022-09-07T22:37:28.699Z,11.30
2022-09-07T22:47:32.314Z,11.20
2022-09-07T22:57:37.778Z,11.00
2022-09-07T23:07:41.444Z,10.80
2022-09-07T23:17:46.488Z,10.60
2022-09-07T23:27:50.213Z,10.40
2022-09-07T23:37:55.314Z,10.30
2022-09-07T23:47:58.927Z,10.10
2022-09-07T23:58:03.989Z,10.10
